Time;durP1;ratioP1;P1;durP2;ratioP2;P2;SDS_P1;SDS_P2;PMS_P1;PMS_P2;Temp;Humidity;BMP_temperature;BMP_pressure;BME280_temperature;BME280_humidity;BME280_pressure;Samples;Min_cycle;Max_cycle;Signal;HPM_P1;HPM_P2
2022/05/03 00:00:52;;;;;;;9.37;5.43;;;11.60;99.90;;;;;;4175316;28;20049;-61
2022/05/03 00:03:15;;;;;;;7.10;5.03;;;11.50;99.90;;;;;;4173711;28;20103;-65
2022/05/03 00:05:27;;;;;;;11.00;5.43;;;11.50;99.90;;;;;;4174885;28;20483;-52
2022/05/03 00:07:51;;;;;;;8.27;5.50;;;11.50;99.90;;;;;;4173510;28;20073;-64
2022/05/03 00:10:18;;;;;;;8.40;5.00;;;11.50;99.90;;;;;;4159302;28;20064;-56
2022/05/03 00:12:27;;;;;;;7.87;5.20;;;11.50;99.90;;;;;;4136769;28;20095;-65
2022/05/03 00:14:31;;;;;;;8.63;4.50;;;11.50;99.90;;;;;;4173768;28;20167;-61
2022/05/03 00:16:35;;;;;;;10.07;5.07;;;11.40;99.90;;;;;;4174001;28;20029;-52
2022/05/03 00:18:36;;;;;;;9.10;4.97;;;11.50;99.90;;;;;;4173515;28;20447;-61
2022/05/03 00:20:37;;;;;;;7.40;4.83;;;11.50;99.90;;;;;;4173770;28;20040;-67
2022/05/03 00:22:39;;;;;;;7.20;5.40;;;11.40;99.90;;;;;;4174330;28;20049;-55
2022/05/03 00:24:44;;;;;;;9.00;5.43;;;11.40;99.90;;;;;;4173371;28;20033;-54
2022/05/03 00:26:46;;;;;;;9.10;5.50;;;11.40;99.90;;;;;;4174669;28;20053;-55
2022/05/03 00:28:48;;;;;;;7.73;5.20;;;11.30;99.90;;;;;;4173373;28;20025;-52
2022/05/03 00:30:50;;;;;;;8.30;5.27;;;11.30;99.90;;;;;;4173853;28;20558;-60
2022/05/03 00:32:52;;;;;;;10.20;5.83;;;11.30;99.90;;;;;;4172775;28;20041;-51
2022/05/03 00:34:55;;;;;;;7.43;4.63;;;11.30;99.90;;;;;;4174879;28;20118;-54
2022/05/03 00:36:56;;;;;;;9.00;5.50;;;11.20;99.90;;;;;;4173871;28;20025;-55
2022/05/03 00:38:58;;;;;;;7.80;5.43;;;11.30;99.90;;;;;;4175046;28;20037;-61
2022/05/03 00:41:02;;;;;;;11.23;5.17;;;11.20;99.90;;;;;;4173273;28;20033;-54
2022/05/03 00:43:30;;;;;;;9.47;5.47;;;11.20;99.90;;;;;;4173931;28;20033;-54
2022/05/03 00:45:37;;;;;;;10.07;5.00;;;11.20;99.90;;;;;;4173178;28;20118;-58
2022/05/03 00:47:50;;;;;;;8.20;4.37;;;11.10;99.90;;;;;;4173655;28;20086;-51
2022/05/03 00:50:07;;;;;;;8.77;4.97;;;11.10;99.90;;;;;;4172721;28;20447;-54
2022/05/03 00:52:35;;;;;;;9.13;5.60;;;11.10;99.90;;;;;;4175131;28;20465;-54
2022/05/03 00:54:45;;;;;;;7.40;4.80;;;11.00;99.90;;;;;;4172644;28;20045;-54
2022/05/03 00:57:07;;;;;;;10.35;5.22;;;11.00;99.90;;;;;;4174710;28;20086;-58
2022/05/03 00:59:29;;;;;;;7.93;4.90;;;10.90;99.90;;;;;;4173398;28;20447;-56
2022/05/03 01:01:40;;;;;;;8.90;5.00;;;10.90;99.90;;;;;;4173545;28;20566;-63
2022/05/03 01:04:10;;;;;;;9.73;5.57;;;10.90;99.90;;;;;;4173135;28;20378;-53
2022/05/03 01:06:27;;;;;;;10.07;5.67;;;10.90;99.90;;;;;;4174407;28;20704;-60
2022/05/03 01:08:35;;;;;;;7.17;4.87;;;10.90;99.90;;;;;;4173721;28;20450;-54
2022/05/03 01:10:52;;;;;;;8.83;5.60;;;10.90;99.90;;;;;;4173507;28;20082;-54
2022/05/03 01:12:55;;;;;;;11.77;5.53;;;11.00;99.90;;;;;;4173340;28;20032;-46
2022/05/03 01:15:12;;;;;;;9.33;4.70;;;11.10;99.90;;;;;;4173749;28;20091;-51
2022/05/03 01:17:36;;;;;;;6.10;4.27;;;11.10;99.90;;;;;;4172608;28;20572;-52
2022/05/03 01:20:03;;;;;;;7.50;4.73;;;11.10;99.90;;;;;;4154357;28;20041;-56
2022/05/03 01:22:25;;;;;;;5.53;4.07;;;11.10;99.90;;;;;;4173116;28;20090;-59
2022/05/03 01:24:57;;;;;;;6.40;4.43;;;11.10;99.90;;;;;;4172517;28;20168;-55
2022/05/03 01:27:16;;;;;;;7.73;4.57;;;11.10;99.90;;;;;;4173351;28;20044;-54
2022/05/03 01:29:18;;;;;;;7.60;4.55;;;11.10;99.90;;;;;;4171752;28;20107;-51
2022/05/03 01:31:20;;;;;;;12.80;4.90;;;11.00;99.90;;;;;;4172784;28;20041;-51
2022/05/03 01:33:42;;;;;;;9.80;5.67;;;10.90;99.90;;;;;;4171966;28;20559;-48
2022/05/03 01:35:49;;;;;;;9.23;4.87;;;10.80;99.90;;;;;;4173054;28;20091;-52
2022/05/03 01:38:08;;;;;;;7.63;5.00;;;10.70;99.90;;;;;;4171889;28;20504;-51
2022/05/03 01:40:23;;;;;;;10.93;5.47;;;10.60;99.90;;;;;;4173966;28;20033;-52
2022/05/03 01:42:31;;;;;;;11.00;5.50;;;10.50;99.90;;;;;;4172673;28;20043;-53
2022/05/03 01:44:40;;;;;;;9.93;5.23;;;10.40;99.90;;;;;;4173581;28;20041;-52
2022/05/03 01:46:41;;;;;;;8.43;5.80;;;10.30;99.90;;;;;;4171644;28;20485;-51
2022/05/03 01:51:19;;;;;;;9.23;5.97;;;10.40;99.90;;;;;;4172517;28;20478;-63
2022/05/03 01:53:35;;;;;;;9.77;5.50;;;10.30;99.90;;;;;;4172942;28;20818;-64
2022/05/03 01:55:39;;;;;;;11.87;6.03;;;10.40;99.90;;;;;;4171825;28;20041;-56
2022/05/03 01:57:59;;;;;;;9.57;5.80;;;10.40;99.90;;;;;;4172779;28;20132;-58
2022/05/03 02:00:05;;;;;;;8.63;5.00;;;10.40;99.90;;;;;;4171768;28;20586;-49
2022/05/03 02:02:25;;;;;;;8.70;5.47;;;10.40;99.90;;;;;;4173073;28;20083;-55
2022/05/03 02:04:35;;;;;;;11.47;5.90;;;10.30;99.90;;;;;;4171453;28;20501;-63
2022/05/03 02:07:14;;;;;;;12.15;5.22;;;10.30;99.90;;;;;;4173488;28;20079;-61
2022/05/03 02:09:27;;;;;;;8.37;4.93;;;10.20;99.90;;;;;;4149176;28;20040;-64
2022/05/03 02:11:50;;;;;;;17.77;6.43;;;10.20;99.90;;;;;;4171596;28;20041;-62
2022/05/03 02:16:38;;;;;;;9.53;5.50;;;10.20;99.90;;;;;;4172227;28;20920;-52
2022/05/03 02:19:00;;;;;;;9.13;5.13;;;10.10;99.90;;;;;;4172657;28;20040;-49
2022/05/03 02:21:17;;;;;;;10.10;4.77;;;10.10;99.90;;;;;;4171167;28;20440;-53
2022/05/03 02:24:02;;;;;;;7.47;5.07;;;10.10;99.90;;;;;;4172362;28;20033;-67
2022/05/03 02:26:03;;;;;;;7.20;5.53;;;10.10;99.90;;;;;;4120697;28;20046;-56
2022/05/03 02:28:29;;;;;;;15.43;6.23;;;10.10;99.90;;;;;;4121813;28;20050;-49
2022/05/03 02:30:35;;;;;;;12.57;5.80;;;10.10;99.90;;;;;;4127170;28;20097;-60
2022/05/03 02:32:55;;;;;;;13.67;6.00;;;10.10;99.90;;;;;;4172503;28;20071;-54
2022/05/03 02:35:05;;;;;;;10.87;5.60;;;10.10;99.90;;;;;;4171729;28;20087;-64
2022/05/03 02:37:23;;;;;;;12.87;6.23;;;10.10;99.90;;;;;;4172575;28;20903;-61
2022/05/03 02:39:29;;;;;;;9.13;5.57;;;10.00;99.90;;;;;;4171754;28;20053;-53
2022/05/03 02:41:38;;;;;;;10.00;6.20;;;10.00;99.90;;;;;;4172517;28;20036;-55
2022/05/03 02:43:40;;;;;;;8.53;6.17;;;10.00;99.90;;;;;;4172411;28;20091;-55
2022/05/03 02:45:50;;;;;;;12.30;6.20;;;10.00;99.90;;;;;;4171937;28;20428;-56
2022/05/03 02:48:14;;;;;;;10.80;7.70;;;10.10;99.90;;;;;;4170983;28;20045;-55
2022/05/03 02:50:22;;;;;;;12.27;7.90;;;10.10;99.90;;;;;;4171552;28;20095;-55
2022/05/03 02:52:32;;;;;;;15.33;8.10;;;10.20;99.90;;;;;;4170972;28;20091;-57
2022/05/03 02:55:00;;;;;;;13.63;8.65;;;10.10;99.90;;;;;;4171861;28;20106;-64
2022/05/03 02:57:30;;;;;;;17.67;10.00;;;10.10;99.90;;;;;;4172281;28;20037;-66
2022/05/03 03:02:16;;;;;;;16.67;9.73;;;10.10;99.90;;;;;;4173091;28;20103;-52
2022/05/03 03:04:32;;;;;;;29.33;10.10;;;10.10;99.90;;;;;;4170422;28;20514;-61
2022/05/03 03:06:37;;;;;;;17.47;10.13;;;10.10;99.90;;;;;;4172257;28;20041;-55
2022/05/03 03:08:44;;;;;;;21.83;10.30;;;10.10;99.90;;;;;;4171583;28;20074;-52
2022/05/03 03:10:52;;;;;;;19.13;10.03;;;10.00;99.90;;;;;;4172265;28;20045;-54
2022/05/03 03:13:10;;;;;;;19.37;10.27;;;10.00;99.90;;;;;;4171618;28;20025;-55
2022/05/03 03:15:15;;;;;;;23.17;10.07;;;10.00;99.90;;;;;;4172634;28;20087;-51
2022/05/03 03:17:25;;;;;;;22.77;12.07;;;9.90;99.90;;;;;;4153737;28;20300;-52
2022/05/03 03:19:48;;;;;;;26.57;12.63;;;9.90;99.90;;;;;;4171987;28;20037;-49
2022/05/03 03:21:55;;;;;;;24.73;11.83;;;9.90;99.90;;;;;;4171612;28;20805;-51
2022/05/03 03:23:58;;;;;;;23.40;11.47;;;9.80;99.90;;;;;;4171840;28;20049;-56
2022/05/03 03:26:00;;;;;;;17.87;10.47;;;9.80;99.90;;;;;;4153021;28;20057;-56
2022/05/03 03:28:04;;;;;;;20.87;11.17;;;9.80;99.90;;;;;;4172141;28;20041;-61
2022/05/03 03:30:09;;;;;;;21.07;11.67;;;9.80;99.90;;;;;;4170544;28;20044;-50
2022/05/03 03:32:12;;;;;;;15.63;8.90;;;9.80;99.90;;;;;;4172851;28;20025;-56
2022/05/03 03:34:14;;;;;;;15.57;8.93;;;9.90;99.90;;;;;;4170791;28;20033;-55
2022/05/03 03:36:17;;;;;;;21.00;9.27;;;9.90;99.90;;;;;;4172278;28;20099;-53
2022/05/03 03:38:26;;;;;;;19.57;9.77;;;9.90;99.90;;;;;;4170280;28;20053;-56
2022/05/03 03:40:29;;;;;;;16.00;9.83;;;9.90;99.90;;;;;;4171400;28;20103;-54
2022/05/03 03:42:31;;;;;;;19.80;10.33;;;9.90;99.90;;;;;;4170850;28;20045;-54
2022/05/03 03:44:34;;;;;;;25.10;9.97;;;9.90;99.90;;;;;;4170286;28;20037;-60
2022/05/03 03:46:35;;;;;;;16.30;9.97;;;9.90;99.90;;;;;;4171548;28;20061;-49
2022/05/03 03:48:37;;;;;;;27.17;10.43;;;10.00;99.90;;;;;;4170767;28;20456;-52
2022/05/03 03:50:39;;;;;;;18.50;9.33;;;10.00;99.90;;;;;;4172321;28;20033;-56
2022/05/03 03:52:44;;;;;;;16.57;9.23;;;10.00;99.90;;;;;;4171798;28;20763;-54
2022/05/03 03:54:46;;;;;;;20.13;8.90;;;10.00;99.90;;;;;;4174556;28;20497;-54
2022/05/03 03:56:50;;;;;;;21.33;9.07;;;10.10;99.90;;;;;;4173354;28;20040;-58
2022/05/03 03:58:52;;;;;;;20.33;9.57;;;10.00;99.90;;;;;;4175081;28;20513;-56
2022/05/03 04:00:53;;;;;;;16.07;8.27;;;10.00;99.90;;;;;;4173457;28;20086;-53
2022/05/03 04:02:54;;;;;;;16.07;8.70;;;10.00;99.90;;;;;;4175495;28;20083;-51
2022/05/03 04:04:57;;;;;;;21.50;9.60;;;10.10;99.90;;;;;;4173671;28;20049;-49
2022/05/03 04:06:59;;;;;;;13.17;8.33;;;10.10;99.90;;;;;;4174831;28;20053;-60
2022/05/03 04:09:01;;;;;;;12.03;8.33;;;10.10;99.90;;;;;;4172492;28;20045;-53
2022/05/03 04:11:16;;;;;;;16.27;9.37;;;10.10;99.90;;;;;;4175403;28;20029;-58
2022/05/03 04:13:17;;;;;;;16.17;9.13;;;10.10;99.90;;;;;;4172378;28;20041;-61
2022/05/03 04:15:18;;;;;;;16.53;8.87;;;10.20;99.90;;;;;;4174188;28;20098;-59
2022/05/03 04:17:19;;;;;;;15.23;8.70;;;10.20;99.90;;;;;;4172342;28;20094;-55
2022/05/03 04:19:21;;;;;;;18.07;9.17;;;10.30;99.90;;;;;;4154154;28;20184;-53
2022/05/03 04:21:22;;;;;;;14.37;8.53;;;10.30;99.90;;;;;;4172644;28;20049;-50
2022/05/03 04:23:23;;;;;;;16.63;8.40;;;10.30;99.90;;;;;;4168610;28;20052;-49
2022/05/03 04:25:24;;;;;;;12.37;8.60;;;10.40;99.90;;;;;;4184611;28;20040;-55
2022/05/03 04:27:27;;;;;;;13.50;9.07;;;10.40;99.90;;;;;;4176940;28;20036;-57
2022/05/03 04:29:28;;;;;;;12.33;8.47;;;10.50;99.90;;;;;;4183469;28;20326;-53
2022/05/03 04:31:35;;;;;;;14.03;9.20;;;10.60;99.90;;;;;;4184783;28;20098;-55
2022/05/03 04:33:36;;;;;;;12.57;8.47;;;10.60;99.90;;;;;;4174375;28;20040;-55
2022/05/03 04:35:37;;;;;;;13.20;8.20;;;10.70;99.90;;;;;;4181030;28;20087;-56
2022/05/03 04:37:38;;;;;;;13.70;8.30;;;10.70;99.90;;;;;;4180798;28;20044;-52
2022/05/03 04:39:39;;;;;;;15.37;8.43;;;10.70;99.90;;;;;;4183319;28;20044;-57
2022/05/03 04:41:40;;;;;;;18.73;8.97;;;10.80;99.90;;;;;;4175134;28;20056;-62
2022/05/03 04:43:42;;;;;;;16.47;8.03;;;10.80;99.90;;;;;;4172463;28;20049;-62
2022/05/03 04:45:43;;;;;;;12.03;8.07;;;10.80;99.90;;;;;;4172657;28;20037;-49
2022/05/03 04:47:44;;;;;;;17.00;8.20;;;10.80;99.90;;;;;;4171572;28;20103;-51
2022/05/03 04:49:47;;;;;;;18.20;9.97;;;10.80;99.90;;;;;;4172825;28;20029;-63
2022/05/03 04:51:48;;;;;;;39.63;10.67;;;10.80;99.90;;;;;;4171683;28;20041;-55
2022/05/03 04:53:50;;;;;;;20.50;9.47;;;10.90;99.90;;;;;;4174038;28;20094;-54
2022/05/03 04:55:51;;;;;;;31.37;10.37;;;11.00;99.90;;;;;;4173439;28;20021;-52
2022/05/03 04:57:55;;;;;;;24.27;11.47;;;11.10;99.90;;;;;;4173281;28;20501;-53
2022/05/03 04:59:56;;;;;;;26.63;8.97;;;11.20;99.90;;;;;;4172949;28;20432;-57
2022/05/03 05:01:58;;;;;;;28.93;8.40;;;11.30;99.90;;;;;;4172870;28;20037;-51
2022/05/03 05:03:59;;;;;;;27.13;8.13;;;11.30;99.90;;;;;;4174010;28;20563;-51
2022/05/03 05:06:00;;;;;;;21.47;9.33;;;11.30;99.90;;;;;;4172531;28;20045;-54
2022/05/03 05:08:05;;;;;;;16.60;7.40;;;11.40;99.90;;;;;;4174226;28;20104;-60
2022/05/03 05:10:26;;;;;;;10.33;6.20;;;11.40;99.90;;;;;;4172504;28;20614;-52
2022/05/03 05:12:30;;;;;;;15.27;6.07;;;11.40;99.90;;;;;;4173766;28;20501;-54
2022/05/03 05:14:31;;;;;;;11.53;6.13;;;11.50;99.90;;;;;;4172468;28;20049;-52
2022/05/03 05:16:32;;;;;;;10.03;6.47;;;11.90;99.90;;;;;;4174379;28;20492;-56
2022/05/03 05:18:34;;;;;;;13.27;6.50;;;12.10;99.90;;;;;;4172239;28;20040;-54
2022/05/03 05:20:35;;;;;;;5.63;4.50;;;12.50;99.90;;;;;;4173220;28;20464;-55
2022/05/03 05:22:36;;;;;;;8.10;3.97;;;12.80;99.90;;;;;;4172517;28;20025;-56
2022/05/03 05:24:37;;;;;;;6.30;3.27;;;13.00;99.90;;;;;;4173907;28;20037;-60
2022/05/03 05:26:39;;;;;;;9.40;3.73;;;13.10;99.90;;;;;;4172092;28;20378;-58
2022/05/03 05:28:40;;;;;;;8.40;4.07;;;13.00;99.90;;;;;;4173611;28;20063;-54
2022/05/03 05:30:42;;;;;;;7.17;4.43;;;12.90;99.90;;;;;;4172797;28;20374;-55
2022/05/03 05:32:43;;;;;;;9.23;3.90;;;12.80;99.90;;;;;;4173153;28;20063;-55
2022/05/03 05:34:44;;;;;;;6.70;4.13;;;12.70;99.90;;;;;;4172391;28;20044;-55
2022/05/03 05:36:46;;;;;;;10.30;4.40;;;12.60;99.90;;;;;;4171880;28;20041;-65
2022/05/03 05:38:47;;;;;;;7.83;4.90;;;12.80;99.90;;;;;;4172805;28;20075;-55
2022/05/03 05:40:49;;;;;;;10.13;4.40;;;12.70;99.90;;;;;;4171877;28;20041;-67
2022/05/03 05:42:50;;;;;;;10.43;4.70;;;12.80;99.90;;;;;;4173369;28;20029;-56
2022/05/03 05:44:51;;;;;;;14.40;4.30;;;12.90;99.90;;;;;;4171591;28;20063;-59
2022/05/03 05:46:53;;;;;;;8.43;4.33;;;12.90;99.90;;;;;;4173431;28;20102;-54
2022/05/03 05:48:54;;;;;;;6.00;4.10;;;12.90;99.90;;;;;;4170887;28;20045;-57
2022/05/03 05:50:55;;;;;;;10.53;5.23;;;13.00;99.90;;;;;;4173022;28;20549;-57
2022/05/03 05:55:16;;;;;;;8.47;3.27;;;13.00;99.90;;;;;;4173618;28;20032;-59
2022/05/03 05:57:17;;;;;;;8.10;3.23;;;13.00;99.90;;;;;;4171555;28;20049;-53
2022/05/03 05:59:18;;;;;;;9.87;3.47;;;12.90;99.90;;;;;;4172433;28;20481;-56
2022/05/03 06:01:45;;;;;;;7.80;3.77;;;12.90;99.90;;;;;;4171627;28;20044;-58
2022/05/03 06:03:46;;;;;;;9.20;3.33;;;13.00;99.90;;;;;;4169056;28;20121;-54
2022/05/03 06:05:49;;;;;;;6.77;3.43;;;13.20;99.90;;;;;;4171331;28;20041;-56
2022/05/03 06:07:50;;;;;;;6.33;3.63;;;13.40;99.90;;;;;;4172300;28;20053;-60
2022/05/03 06:09:51;;;;;;;7.70;3.17;;;13.50;99.90;;;;;;4172320;28;20451;-56
2022/05/03 06:11:52;;;;;;;5.13;3.30;;;13.70;99.90;;;;;;4172634;28;20040;-58
2022/05/03 06:13:54;;;;;;;6.97;3.60;;;13.90;99.90;;;;;;4171118;28;20095;-52
2022/05/03 06:16:05;;;;;;;6.10;4.33;;;14.00;99.90;;;;;;4171883;28;20037;-52
2022/05/03 06:18:10;;;;;;;4.83;3.27;;;14.10;99.90;;;;;;4171320;28;20086;-57
2022/05/03 06:20:11;;;;;;;7.47;3.40;;;14.00;99.90;;;;;;4172194;28;20021;-62
2022/05/03 06:22:14;;;;;;;5.07;3.10;;;14.00;99.90;;;;;;4172048;28;20106;-55
2022/05/03 06:24:15;;;;;;;7.90;3.03;;;14.00;99.90;;;;;;4171773;28;20559;-52
2022/05/03 06:26:16;;;;;;;11.63;3.47;;;14.00;99.90;;;;;;4172172;28;20471;-55
2022/05/03 06:28:19;;;;;;;5.47;3.50;;;13.90;99.90;;;;;;4171728;28;20028;-60
2022/05/03 06:30:21;;;;;;;6.07;3.33;;;13.80;99.90;;;;;;4172297;28;20053;-55
2022/05/03 06:32:24;;;;;;;7.57;3.67;;;13.90;99.90;;;;;;4170842;28;20056;-59
2022/05/03 06:34:25;;;;;;;6.37;3.77;;;13.80;99.90;;;;;;4171396;28;20463;-57
2022/05/03 06:36:27;;;;;;;5.77;3.20;;;14.00;99.90;;;;;;4170580;28;20037;-57
2022/05/03 06:38:28;;;;;;;8.53;4.43;;;14.00;99.90;;;;;;4172912;28;20036;-63
2022/05/03 06:40:29;;;;;;;7.40;3.40;;;14.10;99.90;;;;;;4170737;28;20032;-51
2022/05/03 06:42:35;;;;;;;5.27;3.73;;;14.20;99.90;;;;;;4172442;28;20037;-63
2022/05/03 06:44:37;;;;;;;5.07;3.23;;;14.30;99.90;;;;;;4171286;28;20091;-55
2022/05/03 06:46:38;;;;;;;6.73;3.40;;;14.50;99.90;;;;;;4172057;28;20032;-56
2022/05/03 06:48:40;;;;;;;4.10;3.70;;;14.80;99.90;;;;;;4171387;28;20032;-57
2022/05/03 06:50:41;;;;;;;5.23;3.30;;;15.00;99.90;;;;;;4172608;28;20531;-55
2022/05/03 06:52:54;;;;;;;6.70;4.03;;;15.10;99.90;;;;;;4171551;28;20083;-52
2022/05/03 06:54:55;;;;;;;5.67;3.63;;;15.10;99.90;;;;;;4172806;28;20032;-64
2022/05/03 06:56:56;;;;;;;9.17;3.93;;;15.20;99.90;;;;;;4172016;28;20447;-54
2022/05/03 06:58:57;;;;;;;5.00;3.70;;;15.30;99.90;;;;;;4171442;28;20083;-52
2022/05/03 07:01:10;;;;;;;6.03;3.50;;;15.40;99.90;;;;;;4171996;28;20039;-58
2022/05/03 07:03:12;;;;;;;4.67;3.50;;;15.50;99.90;;;;;;4170374;28;20045;-56
2022/05/03 07:05:13;;;;;;;5.57;3.40;;;15.50;99.90;;;;;;4172104;28;20082;-54
2022/05/03 07:07:14;;;;;;;7.53;3.30;;;15.50;99.90;;;;;;4170888;28;20098;-58
2022/05/03 07:09:15;;;;;;;9.70;5.33;;;15.50;99.90;;;;;;4172395;28;20110;-58
2022/05/03 07:11:17;;;;;;;7.10;3.43;;;15.40;99.90;;;;;;4170619;28;20049;-52
2022/05/03 07:13:23;;;;;;;9.03;4.07;;;15.50;99.90;;;;;;4171817;28;20048;-52
2022/05/03 07:15:26;;;;;;;8.70;3.70;;;15.70;99.90;;;;;;4170639;28;20547;-55
2022/05/03 07:24:27;;;;;;;6.07;3.17;;;15.50;99.90;;;;;;4171546;28;20095;-64
2022/05/03 07:26:28;;;;;;;5.07;3.50;;;15.70;99.50;;;;;;4173205;28;20029;-64
2022/05/03 07:28:29;;;;;;;7.40;3.87;;;15.90;99.30;;;;;;4174218;28;20045;-61
2022/05/03 07:30:30;;;;;;;5.20;3.17;;;16.10;98.90;;;;;;4175199;28;20083;-56
2022/05/03 07:32:31;;;;;;;5.20;3.50;;;16.20;98.60;;;;;;4174219;28;20045;-59
2022/05/03 07:34:33;;;;;;;10.03;4.00;;;16.30;98.30;;;;;;4174878;28;20086;-57
2022/05/03 07:36:34;;;;;;;4.73;3.57;;;16.30;97.90;;;;;;4173512;28;20079;-56
2022/05/03 07:38:35;;;;;;;7.50;3.87;;;16.30;97.90;;;;;;4174805;28;20049;-67
2022/05/03 07:40:36;;;;;;;5.75;3.67;;;16.50;97.90;;;;;;4174769;28;20483;-56
2022/05/03 07:42:37;;;;;;;8.25;2.92;;;16.70;97.40;;;;;;4174947;28;20082;-65
2022/05/03 07:44:39;;;;;;;6.82;3.15;;;16.70;97.10;;;;;;4174479;28;20444;-54
2022/05/03 07:46:40;;;;;;;9.15;4.15;;;16.60;96.90;;;;;;4174850;28;20059;-57
2022/05/03 07:48:41;;;;;;;3.72;3.42;;;16.50;96.90;;;;;;4174961;28;20040;-55
2022/05/03 07:50:44;;;;;;;6.47;3.65;;;16.60;96.90;;;;;;4174008;28;20497;-57
2022/05/03 07:52:45;;;;;;;4.82;3.15;;;16.80;96.70;;;;;;4174628;28;20142;-60
2022/05/03 07:54:47;;;;;;;4.07;3.33;;;17.20;96.20;;;;;;4173621;28;20099;-56
2022/05/03 07:56:48;;;;;;;6.68;3.60;;;17.30;95.90;;;;;;4156789;28;20050;-53
2022/05/03 07:58:49;;;;;;;5.82;3.15;;;17.50;95.30;;;;;;4172930;28;20087;-50
2022/05/03 08:00:50;;;;;;;7.43;3.60;;;17.50;95.00;;;;;;4174884;28;20082;-54
2022/05/03 08:02:51;;;;;;;4.88;3.17;;;17.60;94.70;;;;;;4173517;28;20087;-58
2022/05/03 08:04:54;;;;;;;8.40;3.65;;;17.60;94.40;;;;;;4174663;28;20394;-63
2022/05/03 08:06:55;;;;;;;7.03;3.05;;;17.70;94.10;;;;;;4173043;28;20037;-59
2022/05/03 08:08:56;;;;;;;4.78;3.08;;;18.00;94.00;;;;;;4174704;28;20041;-55
2022/05/03 08:10:57;;;;;;;7.55;3.13;;;18.50;93.80;;;;;;4173567;28;20029;-54
2022/05/03 08:12:59;;;;;;;5.40;2.70;;;18.80;93.10;;;;;;4173471;28;20090;-56
2022/05/03 08:15:00;;;;;;;9.30;3.15;;;19.10;92.50;;;;;;4172700;28;20037;-57
2022/05/03 08:17:02;;;;;;;7.20;4.03;;;19.30;91.80;;;;;;4174248;28;20087;-51
2022/05/03 08:19:03;;;;;;;3.50;2.90;;;19.30;90.80;;;;;;4173555;28;20078;-52
2022/05/03 08:21:04;;;;;;;3.83;2.92;;;19.00;90.50;;;;;;4172797;28;20057;-56
2022/05/03 08:23:07;;;;;;;6.50;3.00;;;18.80;90.40;;;;;;4174148;28;20040;-55
2022/05/03 08:25:09;;;;;;;7.00;3.13;;;18.80;90.60;;;;;;4155946;28;20076;-53
2022/05/03 08:27:10;;;;;;;5.72;2.67;;;18.70;90.20;;;;;;4173891;28;20049;-56
2022/05/03 08:29:11;;;;;;;5.22;2.63;;;18.60;90.10;;;;;;4173684;28;20075;-52
2022/05/03 08:31:12;;;;;;;7.10;2.80;;;18.70;89.80;;;;;;4174103;28;20049;-56
2022/05/03 08:33:14;;;;;;;3.10;2.60;;;18.70;89.40;;;;;;4172497;28;20033;-57
2022/05/03 08:35:15;;;;;;;6.40;2.85;;;18.80;89.20;;;;;;4173388;28;20037;-57
2022/05/03 08:42:01;;;;;;;4.10;3.13;;;18.90;88.20;;;;;;4173204;28;20037;-54
2022/05/03 08:44:03;;;;;;;4.28;2.80;;;18.90;88.20;;;;;;4173800;28;20037;-57
2022/05/03 08:46:06;;;;;;;3.85;2.75;;;18.90;87.00;;;;;;4171859;28;20099;-56
2022/05/03 08:48:08;;;;;;;4.20;2.67;;;18.70;86.30;;;;;;4173940;28;20079;-54
2022/05/03 08:50:11;;;;;;;6.60;2.72;;;18.70;86.10;;;;;;4172962;28;20025;-55
2022/05/03 08:52:15;;;;;;;3.85;2.22;;;18.80;85.00;;;;;;4174156;28;20028;-56
2022/05/03 08:54:17;;;;;;;2.30;1.88;;;18.70;84.10;;;;;;4172922;28;20029;-52
2022/05/03 08:56:19;;;;;;;6.07;2.78;;;18.90;83.30;;;;;;4174051;28;20041;-53
2022/05/03 08:58:22;;;;;;;8.00;3.47;;;19.10;83.80;;;;;;4173294;28;20424;-64
2022/05/03 09:00:24;;;;;;;4.43;3.15;;;19.20;85.50;;;;;;4173371;28;20029;-55
2022/05/03 09:02:25;;;;;;;5.30;3.28;;;19.00;86.00;;;;;;4173487;28;20051;-50
2022/05/03 09:04:26;;;;;;;8.60;3.20;;;18.80;86.70;;;;;;4172072;28;20107;-56
2022/05/03 09:07:15;;;;;;;6.47;3.13;;;18.80;87.30;;;;;;4173179;28;20063;-56
2022/05/03 09:09:20;;;;;;;5.10;3.00;;;19.00;87.00;;;;;;4137238;28;20102;-57
2022/05/03 09:11:21;;;;;;;7.10;3.50;;;19.10;86.50;;;;;;4172489;28;20071;-57
2022/05/03 09:13:24;;;;;;;8.55;2.88;;;19.20;86.10;;;;;;4172818;28;20079;-65
2022/05/03 09:15:30;;;;;;;7.18;3.35;;;19.30;86.00;;;;;;4172570;28;20103;-62
2022/05/03 09:17:39;;;;;;;6.30;3.40;;;19.30;86.00;;;;;;4172321;28;20082;-64
2022/05/03 09:19:40;;;;;;;8.88;3.30;;;19.30;86.40;;;;;;4173711;28;20091;-51
2022/05/03 09:24:08;;;;;;;5.82;2.70;;;19.10;86.00;;;;;;4173570;28;20496;-51
2022/05/03 09:26:21;;;;;;;5.32;2.63;;;19.10;85.90;;;;;;4172501;28;20033;-53
2022/05/03 09:28:23;;;;;;;2.67;2.45;;;19.10;85.50;;;;;;4172216;28;20562;-62
2022/05/03 09:30:24;;;;;;;6.13;2.63;;;19.20;85.50;;;;;;4173009;28;20388;-57
2022/05/03 09:32:40;;;;;;;6.63;3.28;;;19.20;85.70;;;;;;4173290;28;20115;-53
2022/05/03 09:34:41;;;;;;;3.55;3.00;;;19.40;85.00;;;;;;4171817;28;20082;-50
2022/05/03 09:37:05;;;;;;;7.32;3.67;;;19.30;85.40;;;;;;4173500;28;20029;-55
2022/05/03 09:39:06;;;;;;;5.10;3.38;;;19.10;85.10;;;;;;4172938;28;20029;-56
2022/05/03 09:41:15;;;;;;;5.55;3.80;;;18.90;86.50;;;;;;4172625;28;20056;-56
2022/05/03 09:43:17;;;;;;;2.95;2.50;;;18.90;86.60;;;;;;4171193;28;20440;-54
2022/05/03 09:45:22;;;;;;;4.03;2.53;;;18.90;86.40;;;;;;4173154;28;20350;-54
2022/05/03 09:47:46;;;;;;;8.13;3.60;;;18.90;85.50;;;;;;4171574;28;20094;-62
2022/05/03 09:49:48;;;;;;;8.07;3.60;;;18.70;85.80;;;;;;4157396;28;20056;-58
2022/05/03 09:51:49;;;;;;;5.07;2.65;;;18.70;86.30;;;;;;4170915;28;20056;-54
2022/05/03 09:54:00;;;;;;;4.63;3.30;;;18.60;85.30;;;;;;4173029;28;20048;-56
2022/05/03 09:56:11;;;;;;;5.00;3.13;;;18.50;86.30;;;;;;4171647;28;20098;-55
2022/05/03 09:58:15;;;;;;;5.60;2.97;;;18.40;86.50;;;;;;4172789;28;20049;-54
2022/05/03 10:00:17;;;;;;;7.65;3.28;;;18.40;87.20;;;;;;4170464;28;20110;-56
2022/05/03 10:02:22;;;;;;;9.85;3.78;;;18.40;87.30;;;;;;4171884;28;20045;-56
2022/05/03 10:04:24;;;;;;;6.57;3.30;;;18.30;87.90;;;;;;4170728;28;20049;-55
2022/05/03 10:06:26;;;;;;;7.53;3.55;;;18.40;87.80;;;;;;4172249;28;20090;-53
2022/05/03 10:08:28;;;;;;;3.83;3.05;;;18.40;88.00;;;;;;4172026;28;20486;-50
2022/05/03 10:10:29;;;;;;;4.63;3.20;;;18.50;88.20;;;;;;4172598;28;20098;-58
2022/05/03 10:12:31;;;;;;;5.35;3.28;;;18.50;88.10;;;;;;4171175;28;20037;-55
2022/05/03 10:14:32;;;;;;;6.63;2.83;;;18.40;87.60;;;;;;4172291;28;20049;-50
2022/05/03 10:21:23;;;;;;;5.75;2.80;;;18.70;88.50;;;;;;4171070;28;20166;-54
2022/05/03 10:23:35;;;;;;;3.58;2.67;;;19.00;88.20;;;;;;4173041;28;20052;-56
2022/05/03 10:26:00;;;;;;;5.43;3.28;;;19.20;87.10;;;;;;4171208;28;20029;-50
2022/05/03 10:28:01;;;;;;;5.15;2.92;;;19.30;85.10;;;;;;4171861;28;20492;-52
2022/05/03 10:30:23;;;;;;;5.07;2.50;;;19.20;85.80;;;;;;4170644;28;20116;-54
2022/05/03 10:32:24;;;;;;;3.72;2.60;;;19.20;85.40;;;;;;4171953;28;20056;-56
2022/05/03 10:35:03;;;;;;;5.00;2.60;;;19.20;85.70;;;;;;4171140;28;20082;-55
2022/05/03 10:37:05;;;;;;;5.35;2.38;;;19.00;85.00;;;;;;4171640;28;20048;-53
2022/05/03 10:39:23;;;;;;;5.35;3.08;;;18.90;85.90;;;;;;4171116;28;20041;-53
2022/05/03 10:41:24;;;;;;;5.70;3.15;;;18.90;85.10;;;;;;4172433;28;20555;-54
2022/05/03 10:43:27;;;;;;;7.05;3.92;;;18.80;85.80;;;;;;4170141;28;20037;-60
2022/05/03 10:45:28;;;;;;;5.25;3.10;;;18.70;85.80;;;;;;4171093;28;20397;-54
2022/05/03 10:47:39;;;;;;;4.78;3.13;;;18.70;85.90;;;;;;4170467;28;20086;-53
2022/05/03 10:50:17;;;;;;;6.05;2.65;;;18.80;85.10;;;;;;4172474;28;20029;-57
2022/05/03 10:52:18;;;;;;;4.97;3.05;;;18.80;84.80;;;;;;4171109;28;20037;-53
2022/05/03 10:54:21;;;;;;;3.92;2.25;;;18.70;84.80;;;;;;4172509;28;20098;-56
2022/05/03 10:56:23;;;;;;;5.72;2.78;;;18.80;85.40;;;;;;4170394;28;20041;-50
2022/05/03 10:58:34;;;;;;;6.05;2.92;;;18.80;84.50;;;;;;4171264;28;20052;-54
2022/05/03 11:01:03;;;;;;;2.72;2.45;;;18.80;84.20;;;;;;4170817;28;20417;-64
2022/05/03 11:03:19;;;;;;;5.38;2.47;;;19.00;83.80;;;;;;4177086;28;20054;-55
2022/05/03 11:05:20;;;;;;;3.95;2.30;;;19.00;82.50;;;;;;4175893;28;20057;-58
2022/05/03 11:07:26;;;;;;;5.07;2.83;;;18.90;83.00;;;;;;4176777;28;20035;-59
2022/05/03 11:09:34;;;;;;;4.10;2.47;;;18.90;82.70;;;;;;4176585;28;20514;-52
2022/05/03 11:11:37;;;;;;;7.50;2.80;;;18.90;82.50;;;;;;4176889;28;20447;-53
2022/05/03 11:13:40;;;;;;;4.68;2.92;;;18.90;82.60;;;;;;4176385;28;20067;-52
2022/05/03 11:16:21;;;;;;;7.22;2.80;;;19.00;82.40;;;;;;4177983;28;20420;-58
2022/05/03 11:18:24;;;;;;;3.45;2.45;;;19.10;81.40;;;;;;4176243;28;20099;-57
2022/05/03 11:20:25;;;;;;;4.70;2.45;;;19.40;82.40;;;;;;4177404;28;20102;-56
2022/05/03 11:22:29;;;;;;;4.28;2.47;;;19.40;81.30;;;;;;4176231;28;20440;-56
2022/05/03 11:24:32;;;;;;;2.80;1.90;;;19.50;81.10;;;;;;4177471;28;20040;-59